Time;durP1;ratioP1;P1;durP2;ratioP2;P2;SDS_P1;SDS_P2;PMS_P1;PMS_P2;Temp;Humidity;BMP_temperature;BMP_pressure;BME280_temperature;BME280_humidity;BME280_pressure;Samples;Min_cycle;Max_cycle;Signal;HPM_P1;HPM_P2
2020/12/25 00:01:30;;;;;;;2.95;1.77;;;;;;;1.56;84.36;96211.94;4915543;29;20059;-76
2020/12/25 00:03:59;;;;;;;31.83;11.75;;;;;;;1.58;84.33;96210.00;4916767;29;20056;-76
2020/12/25 00:06:36;;;;;;;6.30;2.17;;;;;;;1.57;84.16;96223.88;4916829;29;20040;-76
2020/12/25 00:09:04;;;;;;;2.47;1.10;;;;;;;1.55;83.94;96225.03;4916597;29;20067;-76
2020/12/25 00:11:36;;;;;;;2.15;1.55;;;;;;;1.50;84.32;96222.94;4922785;29;20055;-76
2020/12/25 00:14:04;;;;;;;3.20;1.10;;;;;;;1.53;84.38;96219.22;4922612;29;20056;-76
2020/12/25 00:16:30;;;;;;;2.25;1.15;;;;;;;1.55;84.44;96219.88;4922775;29;20051;-76
2020/12/25 00:18:57;;;;;;;2.67;1.90;;;;;;;1.61;84.61;96221.78;4922559;29;20056;-76
2020/12/25 00:21:24;;;;;;;1.88;0.90;;;;;;;1.68;84.54;96227.91;4914004;29;20056;-77
2020/12/25 00:23:50;;;;;;;0.93;0.85;;;;;;;1.72;84.30;96225.78;4905508;29;20056;-77
2020/12/25 00:26:30;;;;;;;4.38;2.63;;;;;;;1.72;84.10;96228.38;4922870;29;20048;-77
2020/12/25 00:28:58;;;;;;;0.60;0.60;;;;;;;1.70;83.98;96233.72;4906363;29;20040;-76
2020/12/25 00:31:30;;;;;;;0.77;0.77;;;;;;;1.70;84.06;96235.47;4922496;29;20051;-76
2020/12/25 00:33:58;;;;;;;1.40;0.80;;;;;;;1.62;84.14;96242.31;4922666;29;20416;-77
2020/12/25 00:36:28;;;;;;;1.58;0.70;;;;;;;1.57;84.02;96236.81;4920751;29;20044;-77
2020/12/25 00:38:56;;;;;;;0.82;0.80;;;;;;;1.53;84.24;96232.94;4922402;29;20496;-76
2020/12/25 00:41:22;;;;;;;0.80;0.80;;;;;;;1.56;84.66;96239.59;4922444;29;20067;-76
2020/12/25 00:43:49;;;;;;;0.93;0.90;;;;;;;1.62;84.78;96231.97;4922471;29;20063;-76
2020/12/25 00:46:15;;;;;;;1.77;0.80;;;;;;;1.62;84.17;96239.72;4922346;29;20056;-76
2020/12/25 00:48:42;;;;;;;0.95;0.95;;;;;;;1.63;84.15;96237.94;4922182;29;20048;-76
2020/12/25 00:51:12;;;;;;;0.90;0.90;;;;;;;1.63;84.24;96235.34;4922873;29;20040;-76
2020/12/25 00:53:39;;;;;;;0.80;0.80;;;;;;;1.62;84.19;96246.69;4905399;29;20496;-77
2020/12/25 00:56:05;;;;;;;1.10;1.00;;;;;;;1.62;84.33;96236.34;4921908;29;20044;-77
2020/12/25 00:58:31;;;;;;;1.13;1.05;;;;;;;1.60;84.19;96248.63;4922626;29;20044;-77
2020/12/25 01:00:57;;;;;;;0.80;0.80;;;;;;;1.60;84.36;96233.09;4901123;29;20052;-77
2020/12/25 01:03:24;;;;;;;1.00;1.00;;;;;;;1.63;84.33;96251.66;4907743;29;20044;-77
2020/12/25 01:05:50;;;;;;;0.93;0.93;;;;;;;1.67;84.31;96253.91;4912262;29;20091;-77
2020/12/25 01:08:16;;;;;;;1.30;1.20;;;;;;;1.73;84.31;96255.84;4923292;29;20048;-77
2020/12/25 01:10:42;;;;;;;1.27;1.17;;;;;;;1.72;84.36;96264.56;4922343;29;20051;-77
2020/12/25 01:13:09;;;;;;;0.98;0.88;;;;;;;1.75;84.42;96267.63;4921047;29;20063;-77
2020/12/25 01:15:35;;;;;;;1.15;0.90;;;;;;;1.72;83.99;96265.38;4921830;29;20048;-77
2020/12/25 01:18:01;;;;;;;1.40;1.10;;;;;;;1.70;84.08;96272.50;4898611;29;20032;-76
2020/12/25 01:20:27;;;;;;;1.25;1.10;;;;;;;1.63;83.77;96264.56;4889607;29;20048;-76
2020/12/25 01:22:53;;;;;;;1.33;1.00;;;;;;;1.58;84.11;96264.28;4900821;29;20404;-76
2020/12/25 01:25:19;;;;;;;1.15;1.05;;;;;;;1.57;84.45;96275.56;4919620;29;20055;-76
2020/12/25 01:27:46;;;;;;;1.42;1.33;;;;;;;1.55;84.38;96277.53;4918158;29;20040;-76
2020/12/25 01:30:12;;;;;;;2.10;1.60;;;;;;;1.61;84.87;96283.81;4919760;29;20043;-77
2020/12/25 01:32:38;;;;;;;2.08;1.50;;;;;;;1.67;84.61;96287.53;4902378;29;20056;-77
2020/12/25 01:35:04;;;;;;;1.30;1.17;;;;;;;1.71;84.41;96288.81;4919369;29;20036;-76
2020/12/25 01:37:31;;;;;;;2.47;1.60;;;;;;;1.75;84.51;96279.75;4919262;29;20408;-77
2020/12/25 01:39:57;;;;;;;10.05;5.03;;;;;;;1.78;84.35;96294.91;4919062;29;20168;-77
2020/12/25 01:42:23;;;;;;;1.70;1.60;;;;;;;1.77;84.41;96294.13;4902010;29;20048;-76
2020/12/25 01:44:49;;;;;;;4.28;2.50;;;;;;;1.82;84.66;96294.41;4919250;29;20060;-76
2020/12/25 01:47:17;;;;;;;4.88;3.30;;;;;;;1.87;84.59;96295.69;4901529;29;20055;-77
2020/12/25 01:49:47;;;;;;;4.47;2.10;;;;;;;1.92;84.72;96301.19;4919109;29;20048;-76
2020/12/25 01:52:14;;;;;;;2.00;1.80;;;;;;;1.94;84.71;96305.22;4918712;29;20056;-76
2020/12/25 01:54:44;;;;;;;2.78;1.90;;;;;;;1.97;84.50;96304.06;4901840;29;20048;-76
2020/12/25 01:57:13;;;;;;;2.78;1.98;;;;;;;1.96;84.31;96305.06;4917830;29;20039;-77
2020/12/25 01:59:40;;;;;;;3.00;2.10;;;;;;;1.97;84.41;96297.09;4918700;29;20168;-76
2020/12/25 02:02:08;;;;;;;2.53;1.75;;;;;;;1.97;84.18;96302.28;4918096;29;20048;-76
2020/12/25 02:04:34;;;;;;;2.30;2.00;;;;;;;1.92;83.84;96304.56;4918998;29;20420;-76
2020/12/25 02:07:01;;;;;;;4.05;2.05;;;;;;;1.88;84.01;96305.88;4901920;29;20040;-76
2020/12/25 02:09:27;;;;;;;7.25;3.42;;;;;;;1.88;84.16;96311.03;4902402;29;20067;-77
2020/12/25 02:11:53;;;;;;;3.60;2.20;;;;;;;1.86;83.95;96314.78;4918669;29;20047;-76
2020/12/25 02:14:20;;;;;;;2.45;2.15;;;;;;;1.84;84.17;96312.34;4901850;29;20415;-77
2020/12/25 02:16:46;;;;;;;2.22;1.85;;;;;;;1.81;84.09;96323.84;4901389;29;20048;-76
2020/12/25 02:19:14;;;;;;;3.10;1.95;;;;;;;1.81;84.26;96326.41;4901734;29;20044;-77
2020/12/25 02:21:41;;;;;;;4.07;2.88;;;;;;;1.85;84.38;96329.50;4918327;29;20071;-76
2020/12/25 02:24:08;;;;;;;7.07;3.78;;;;;;;1.87;84.46;96332.72;4918485;29;20052;-76
2020/12/25 02:26:37;;;;;;;3.92;2.58;;;;;;;1.88;84.17;96326.56;4918229;29;20052;-77
2020/12/25 02:29:03;;;;;;;5.72;3.28;;;;;;;1.91;84.27;96333.19;4917556;29;20056;-76
2020/12/25 02:31:29;;;;;;;5.53;3.33;;;;;;;1.93;84.30;96346.75;4917231;29;20044;-76
2020/12/25 02:33:55;;;;;;;6.72;4.60;;;;;;;1.94;84.09;96335.44;4901416;29;20396;-76
2020/12/25 02:36:22;;;;;;;3.58;3.03;;;;;;;1.89;83.92;96342.88;4917873;29;20059;-76
2020/12/25 02:38:48;;;;;;;5.93;2.80;;;;;;;1.82;83.88;96340.94;4916078;29;20077;-76
2020/12/25 02:41:14;;;;;;;3.90;2.90;;;;;;;1.78;83.93;96334.50;4917809;29;20071;-76
2020/12/25 02:43:40;;;;;;;4.38;2.72;;;;;;;1.76;84.05;96336.44;4917794;29;20063;-77
2020/12/25 02:46:06;;;;;;;3.30;2.60;;;;;;;1.76;84.19;96336.44;4901033;29;20036;-76
2020/12/25 02:48:32;;;;;;;5.15;3.35;;;;;;;1.80;84.63;96342.09;4917449;29;20048;-77
2020/12/25 02:50:59;;;;;;;3.00;2.55;;;;;;;1.84;84.78;96348.56;4917957;29;20048;-76
2020/12/25 02:53:25;;;;;;;6.80;3.97;;;;;;;1.88;84.46;96338.69;4917566;29;20055;-76
2020/12/25 02:55:51;;;;;;;7.30;4.63;;;;;;;1.89;84.36;96350.63;4916539;29;20044;-77
2020/12/25 02:58:17;;;;;;;4.95;3.65;;;;;;;1.90;84.45;96349.69;4900707;29;20404;-77
2020/12/25 03:00:43;;;;;;;3.65;2.20;;;;;;;1.87;84.06;96353.41;4917247;29;20048;-76
2020/12/25 03:03:09;;;;;;;3.05;2.20;;;;;;;1.90;84.47;96358.22;4916627;29;20047;-76
2020/12/25 03:05:35;;;;;;;4.45;2.63;;;;;;;1.92;84.21;96363.25;4917339;29;20063;-76
2020/12/25 03:08:02;;;;;;;2.85;2.60;;;;;;;1.95;84.39;96366.31;4901017;29;20044;-76
2020/12/25 03:10:29;;;;;;;4.13;3.20;;;;;;;1.99;84.49;96366.78;4917624;29;20052;-76
2020/12/25 03:12:55;;;;;;;6.25;3.50;;;;;;;2.03;84.69;96375.81;4916030;29;20048;-76
2020/12/25 03:15:21;;;;;;;4.47;2.92;;;;;;;2.03;83.97;96381.78;4917004;29;20047;-76
2020/12/25 03:17:47;;;;;;;2.70;2.25;;;;;;;1.99;83.88;96377.13;4916901;29;20056;-76
2020/12/25 03:20:13;;;;;;;3.15;2.38;;;;;;;1.94;83.74;96384.56;4917122;29;20059;-76
2020/12/25 03:22:39;;;;;;;4.80;3.00;;;;;;;1.91;83.88;96388.31;4900569;29;20079;-77
2020/12/25 03:25:06;;;;;;;2.60;2.33;;;;;;;1.92;83.88;96383.94;4916698;29;20059;-77
2020/12/25 03:27:32;;;;;;;5.32;3.28;;;;;;;1.97;84.17;96392.00;4917168;29;20040;-77
2020/12/25 03:29:58;;;;;;;2.80;2.20;;;;;;;1.99;84.19;96392.63;4917073;29;20044;-77
2020/12/25 03:32:24;;;;;;;3.75;2.17;;;;;;;2.01;84.00;96399.25;4900234;29;20051;-76
2020/12/25 03:34:50;;;;;;;2.40;2.20;;;;;;;2.01;83.91;96401.03;4900038;29;20052;-76
2020/12/25 03:37:18;;;;;;;7.18;3.50;;;;;;;2.02;83.92;96397.50;4915942;29;20040;-77
2020/12/25 03:39:46;;;;;;;6.10;3.53;;;;;;;2.07;83.92;96402.16;4916775;29;20056;-77
2020/12/25 03:42:12;;;;;;;13.70;7.90;;;;;;;2.05;83.51;96399.75;4916755;29;20079;-77
2020/12/25 03:44:38;;;;;;;10.45;4.70;;;;;;;2.02;83.74;96398.28;4916262;29;20067;-76
2020/12/25 03:47:04;;;;;;;1.95;1.75;;;;;;;2.03;83.85;96397.31;4916351;29;20052;-76
2020/12/25 03:49:31;;;;;;;3.10;2.25;;;;;;;2.05;83.77;96394.56;4900404;29;20044;-77
2020/12/25 03:51:57;;;;;;;1.90;1.70;;;;;;;2.09;83.82;96403.63;4917137;29;20051;-77
2020/12/25 03:54:23;;;;;;;3.45;1.67;;;;;;;2.13;83.94;96404.91;4899766;29;20465;-76
2020/12/25 03:56:49;;;;;;;2.20;1.58;;;;;;;2.13;83.54;96404.91;4899554;29;20064;-77
2020/12/25 03:59:15;;;;;;;3.47;2.30;;;;;;;2.15;83.58;96417.69;4916472;29;20048;-77
2020/12/25 04:01:41;;;;;;;6.75;4.18;;;;;;;2.14;83.57;96410.88;4899543;29;20048;-77
2020/12/25 04:04:07;;;;;;;9.93;5.35;;;;;;;2.17;83.73;96410.56;4899760;29;20408;-77
2020/12/25 04:06:33;;;;;;;22.55;11.38;;;;;;;2.18;83.43;96417.31;4916857;29;20040;-77
2020/12/25 04:08:59;;;;;;;12.93;6.95;;;;;;;2.14;83.38;96414.28;4916608;29;20059;-76
2020/12/25 04:11:25;;;;;;;10.13;5.72;;;;;;;2.17;83.42;96410.56;4917262;29;20047;-76
2020/12/25 04:13:52;;;;;;;11.63;5.93;;;;;;;2.19;83.39;96413.78;4899217;29;20105;-77
2020/12/25 04:16:18;;;;;;;22.25;11.63;;;;;;;2.19;83.12;96418.97;4916709;29;20048;-77
2020/12/25 04:18:44;;;;;;;31.88;14.93;;;;;;;2.19;83.39;96416.38;4899704;29;20056;-76
2020/12/25 04:21:11;;;;;;;18.50;9.43;;;;;;;2.21;83.30;96420.41;4916372;29;20060;-76
2020/12/25 04:23:37;;;;;;;2.92;2.03;;;;;;;2.26;83.23;96429.44;4916379;29;20531;-76
2020/12/25 04:26:03;;;;;;;2.75;1.27;;;;;;;2.19;82.89;96427.53;4916750;29;20036;-76
2020/12/25 04:28:29;;;;;;;2.83;2.03;;;;;;;2.16;82.79;96432.22;4916588;29;20059;-75
2020/12/25 04:30:55;;;;;;;2.40;1.73;;;;;;;2.14;83.09;96431.56;4916632;29;20404;-75
2020/12/25 04:33:21;;;;;;;2.08;1.20;;;;;;;2.17;83.29;96434.63;4916345;29;20063;-76
2020/12/25 04:35:47;;;;;;;2.42;1.40;;;;;;;2.21;83.62;96440.31;4915286;29;20044;-76
2020/12/25 04:38:13;;;;;;;2.22;2.03;;;;;;;2.23;83.47;96444.31;4916256;29;20048;-77
2020/12/25 04:40:42;;;;;;;3.08;1.70;;;;;;;2.23;83.36;96446.91;4899299;29;20048;-77
2020/12/25 04:43:10;;;;;;;2.00;1.80;;;;;;;2.22;83.21;96450.47;4916656;29;20068;-77
2020/12/25 04:45:36;;;;;;;1.85;1.65;;;;;;;2.25;83.56;96451.94;4916927;29;20060;-77
2020/12/25 04:48:02;;;;;;;9.10;5.63;;;;;;;2.28;83.52;96445.63;4899541;29;20046;-77
2020/12/25 04:50:28;;;;;;;6.28;4.03;;;;;;;2.32;83.24;96444.31;4916181;29;20052;-77
2020/12/25 04:52:54;;;;;;;8.00;4.82;;;;;;;2.34;83.08;96448.34;4915939;29;20052;-77
2020/12/25 04:55:21;;;;;;;22.35;10.95;;;;;;;2.37;83.11;96449.78;4899218;29;20148;-77
2020/12/25 04:57:47;;;;;;;2.38;1.77;;;;;;;2.39;83.27;96456.44;4902240;29;20055;-76
2020/12/25 05:00:18;;;;;;;14.63;8.25;;;;;;;2.40;82.99;96455.44;4919885;29;20055;-76
2020/12/25 05:02:49;;;;;;;11.05;6.25;;;;;;;2.42;82.94;96457.88;4919632;29;20095;-76
2020/12/25 05:05:25;;;;;;;3.03;1.42;;;;;;;2.35;82.52;96456.91;4916851;29;20056;-77
2020/12/25 05:07:52;;;;;;;5.03;2.90;;;;;;;2.33;82.85;96461.44;4920353;29;20055;-76
2020/12/25 05:10:18;;;;;;;8.50;4.15;;;;;;;2.32;82.83;96457.25;4911132;29;20048;-76
2020/12/25 05:12:48;;;;;;;4.28;2.80;;;;;;;2.32;82.69;96459.84;4902910;29;20060;-76
2020/12/25 05:15:14;;;;;;;1.55;1.40;;;;;;;2.28;82.52;96471.50;4920004;29;20043;-76
2020/12/25 05:17:42;;;;;;;1.50;1.35;;;;;;;2.22;82.24;96471.16;4918357;29;20047;-76
2020/12/25 05:20:08;;;;;;;1.50;1.40;;;;;;;2.18;82.80;96472.50;4919475;29;20362;-76
2020/12/25 05:22:35;;;;;;;2.80;1.92;;;;;;;2.16;82.59;96471.84;4919815;29;20485;-78
2020/12/25 05:25:08;;;;;;;2.33;1.83;;;;;;;2.09;82.66;96473.44;4902479;29;20055;-76
2020/12/25 05:27:35;;;;;;;3.15;2.20;;;;;;;2.07;82.72;96459.06;4919003;29;20040;-76
2020/12/25 05:30:04;;;;;;;2.90;2.28;;;;;;;1.97;82.78;96469.59;4902627;29;20050;-76
2020/12/25 05:32:32;;;;;;;2.53;2.30;;;;;;;1.91;82.57;96467.66;4919232;29;20039;-76
2020/12/25 05:35:00;;;;;;;4.18;2.40;;;;;;;1.90;82.86;96477.19;4919377;29;20052;-76
2020/12/25 05:37:36;;;;;;;3.55;2.78;;;;;;;1.95;83.32;96479.28;4919186;29;20047;-76
2020/12/25 05:40:06;;;;;;;3.15;2.42;;;;;;;1.97;83.27;96477.34;4919436;29;20064;-76
2020/12/25 05:42:46;;;;;;;2.80;2.28;;;;;;;1.90;83.36;96487.53;4917502;29;20063;-76
2020/12/25 05:45:16;;;;;;;3.15;2.60;;;;;;;1.92;83.70;96483.00;4911208;29;20063;-76
2020/12/25 05:47:44;;;;;;;2.85;2.20;;;;;;;1.96;83.53;96488.66;4919378;29;20082;-76
2020/12/25 05:50:10;;;;;;;3.83;3.22;;;;;;;1.97;83.10;96487.69;4917721;29;20032;-76
2020/12/25 05:52:38;;;;;;;4.07;2.53;;;;;;;1.96;83.23;96486.88;4917690;29;20059;-76
2020/12/25 05:55:08;;;;;;;3.30;2.75;;;;;;;1.92;83.04;96484.78;4901558;29;20063;-76
2020/12/25 05:57:35;;;;;;;3.13;2.42;;;;;;;1.77;82.96;96482.84;4918952;29;20048;-76
2020/12/25 06:00:05;;;;;;;3.78;2.67;;;;;;;1.77;83.24;96492.38;4901503;29;20064;-76
2020/12/25 06:02:35;;;;;;;5.95;3.25;;;;;;;1.77;83.20;96495.78;4918587;29;20063;-76
2020/12/25 06:05:02;;;;;;;3.53;2.78;;;;;;;1.78;83.26;96496.56;4918616;29;20048;-76
2020/12/25 06:07:30;;;;;;;4.75;2.97;;;;;;;1.72;83.25;96490.28;4901498;29;20051;-77
2020/12/25 06:10:00;;;;;;;3.85;2.97;;;;;;;1.73;83.53;96501.44;4901836;29;20487;-76
2020/12/25 06:12:53;;;;;;;3.53;2.83;;;;;;;1.78;83.84;96504.34;4901618;29;20445;-75
2020/12/25 06:15:29;;;;;;;3.85;2.92;;;;;;;1.79;83.50;96501.59;4917365;29;20481;-76
2020/12/25 06:18:20;;;;;;;3.33;2.88;;;;;;;1.84;83.73;96506.28;4918801;29;20404;-76
2020/12/25 06:20:54;;;;;;;4.07;3.05;;;;;;;1.79;83.24;96509.34;4902105;29;20040;-77
2020/12/25 06:23:21;;;;;;;13.75;3.65;;;;;;;1.74;83.32;96508.22;4917781;29;20044;-76
2020/12/25 06:25:50;;;;;;;5.07;3.00;;;;;;;1.74;83.40;96506.44;4918017;29;20047;-76
2020/12/25 06:28:18;;;;;;;3.92;2.75;;;;;;;1.79;83.78;96513.72;4918252;29;20044;-77
2020/12/25 06:30:45;;;;;;;3.88;3.00;;;;;;;1.85;83.95;96515.66;4918007;29;20079;-76
2020/12/25 06:33:11;;;;;;;5.25;3.10;;;;;;;1.89;83.87;96518.72;4918205;29;20385;-76
2020/12/25 06:35:43;;;;;;;5.07;3.60;;;;;;;1.93;83.67;96522.59;4917051;29;20068;-76
2020/12/25 06:38:14;;;;;;;3.97;3.30;;;;;;;1.94;83.58;96524.22;4918380;29;20040;-76
2020/12/25 06:40:41;;;;;;;4.28;3.35;;;;;;;1.95;83.49;96529.25;4917607;29;20063;-76
2020/12/25 06:43:20;;;;;;;4.25;3.10;;;;;;;1.97;83.58;96531.66;4917855;29;20444;-76
2020/12/25 06:46:12;;;;;;;3.63;2.65;;;;;;;1.98;83.81;96533.28;4916327;29;20078;-76
2020/12/25 06:48:38;;;;;;;4.70;3.47;;;;;;;1.97;83.59;96535.03;4899328;29;20044;-76
2020/12/25 06:51:10;;;;;;;4.20;3.30;;;;;;;1.96;83.22;96548.16;4901114;29;20048;-76
2020/12/25 06:53:41;;;;;;;5.35;3.30;;;;;;;1.92;83.22;96536.50;4917432;29;20095;-77
2020/12/25 06:56:10;;;;;;;4.97;3.13;;;;;;;1.90;83.07;96541.84;4901792;29;20056;-76
2020/12/25 06:58:39;;;;;;;5.40;3.45;;;;;;;1.90;83.24;96547.00;4917403;29;20048;-76
2020/12/25 07:01:06;;;;;;;4.72;3.63;;;;;;;1.91;83.39;96551.22;4900606;29;20151;-77
2020/12/25 07:03:36;;;;;;;5.53;3.50;;;;;;;1.92;83.11;96550.25;4901108;29;20492;-76
2020/12/25 07:06:04;;;;;;;5.75;4.20;;;;;;;1.90;83.11;96551.38;4900918;29;20059;-76
2020/12/25 07:08:33;;;;;;;6.13;4.25;;;;;;;1.90;83.28;96554.78;4917533;29;20056;-76
2020/12/25 07:11:09;;;;;;;6.60;4.22;;;;;;;1.92;83.18;96572.72;4917293;29;20052;-76
2020/12/25 07:13:36;;;;;;;5.75;4.00;;;;;;;1.94;83.43;96575.94;4916646;29;20055;-75
2020/12/25 07:16:06;;;;;;;5.65;4.25;;;;;;;1.95;83.07;96574.97;4915590;29;20048;-76
2020/12/25 07:18:33;;;;;;;5.32;4.30;;;;;;;1.95;83.14;96577.56;4899831;29;20404;-75
2020/12/25 07:21:01;;;;;;;7.13;5.13;;;;;;;1.95;83.20;96569.78;4915311;29;20140;-75
2020/12/25 07:23:28;;;;;;;6.43;5.00;;;;;;;1.93;83.29;96572.56;4912566;29;20048;-75
2020/12/25 07:25:58;;;;;;;5.45;4.32;;;;;;;1.88;82.93;96586.94;4917111;29;20052;-75
2020/12/25 07:28:27;;;;;;;5.53;3.72;;;;;;;1.81;82.99;96579.00;4911114;29;20055;-76
2020/12/25 07:30:55;;;;;;;6.07;4.60;;;;;;;1.78;83.19;96582.69;4917066;29;20047;-75
2020/12/25 07:33:22;;;;;;;6.03;4.03;;;;;;;1.76;83.13;96587.22;4917145;29;20484;-75
2020/12/25 07:35:49;;;;;;;6.35;5.05;;;;;;;1.71;83.16;96584.31;4917818;29;20048;-75
2020/12/25 07:38:16;;;;;;;6.50;4.38;;;;;;;1.72;83.39;96587.72;4900788;29;20044;-75
2020/12/25 07:40:43;;;;;;;6.47;4.93;;;;;;;1.75;83.35;96587.41;4917111;29;20044;-75
2020/12/25 07:43:11;;;;;;;7.35;5.13;;;;;;;1.76;83.43;96584.63;4917182;29;20056;-75
2020/12/25 07:45:38;;;;;;;7.20;4.43;;;;;;;1.78;83.56;96597.41;4899692;29;20060;-75
2020/12/25 07:48:06;;;;;;;7.93;4.45;;;;;;;1.79;83.41;96601.63;4916539;29;20059;-75
2020/12/25 07:50:44;;;;;;;9.25;6.63;;;;;;;1.78;83.40;96600.81;4916708;29;20059;-75
2020/12/25 07:53:18;;;;;;;9.05;7.00;;;;;;;1.78;83.25;96602.59;4915869;29;20054;-75
2020/12/25 07:55:47;;;;;;;6.20;5.00;;;;;;;1.75;83.42;96602.91;4899581;29;20113;-75
2020/12/25 07:58:18;;;;;;;7.35;5.18;;;;;;;1.72;83.19;96608.38;4909028;29;20281;-75
2020/12/25 08:00:45;;;;;;;5.85;4.63;;;;;;;1.67;83.33;96608.06;4916499;29;20067;-75
2020/12/25 08:03:12;;;;;;;6.68;5.35;;;;;;;1.61;83.21;96618.06;4900060;29;20059;-74
2020/12/25 08:05:39;;;;;;;5.82;4.38;;;;;;;1.50;83.37;96620.94;4899819;29;20040;-75
2020/12/25 08:08:06;;;;;;;5.78;4.00;;;;;;;1.46;83.43;96627.38;4916435;29;20400;-75
2020/12/25 08:10:36;;;;;;;4.72;3.60;;;;;;;1.43;83.77;96619.97;4916336;29;20049;-75
2020/12/25 08:13:06;;;;;;;8.02;5.30;;;;;;;1.37;83.31;96630.91;4916253;29;20063;-75
2020/12/25 08:15:33;;;;;;;6.10;4.13;;;;;;;1.25;83.41;96624.41;4916765;29;20055;-75
2020/12/25 08:18:03;;;;;;;6.25;4.40;;;;;;;1.15;84.21;96630.47;4916783;29;20492;-75
2020/12/25 08:20:31;;;;;;;5.70;3.97;;;;;;;1.19;84.13;96633.56;4916253;29;20051;-75
2020/12/25 08:23:02;;;;;;;9.57;5.60;;;;;;;1.23;84.14;96632.28;4915900;29;20048;-75
2020/12/25 08:25:31;;;;;;;8.45;5.10;;;;;;;1.20;83.89;96637.78;4916318;29;20044;-75
2020/12/25 08:27:58;;;;;;;6.90;5.20;;;;;;;1.14;84.02;96626.28;4915720;29;20059;-75
2020/12/25 08:30:27;;;;;;;8.75;6.13;;;;;;;1.04;83.99;96629.94;4916320;29;20468;-77
2020/12/25 08:32:58;;;;;;;8.23;4.88;;;;;;;0.96;84.48;96639.25;4903436;29;20056;-74
2020/12/25 08:35:29;;;;;;;8.43;5.93;;;;;;;0.86;84.49;96633.41;4903349;29;20413;-74
2020/12/25 08:38:02;;;;;;;8.80;6.13;;;;;;;0.81;85.18;96646.75;4919939;29;20497;-74
2020/12/25 08:40:33;;;;;;;6.63;4.57;;;;;;;0.75;85.71;96646.53;4919509;29;20051;-74
2020/12/25 08:43:06;;;;;;;7.53;5.05;;;;;;;0.71;85.92;96658.13;4918668;29;20106;-74
2020/12/25 08:45:32;;;;;;;9.57;5.40;;;;;;;0.64;85.20;96655.34;4919360;29;20064;-74
2020/12/25 08:48:04;;;;;;;6.40;4.70;;;;;;;0.65;86.01;96658.72;4919786;29;20044;-74
2020/12/25 08:50:30;;;;;;;5.68;4.13;;;;;;;0.69;85.73;96670.38;4919840;29;20051;-74
2020/12/25 08:53:20;;;;;;;6.22;4.32;;;;;;;0.74;86.53;96663.00;4920211;29;20044;-74
2020/12/25 08:55:51;;;;;;;10.13;5.60;;;;;;;0.80;86.05;96667.56;4919191;29;20068;-76
2020/12/25 08:58:19;;;;;;;7.55;4.72;;;;;;;0.84;85.88;96665.47;4920361;29;20107;-74
2020/12/25 09:00:56;;;;;;;10.43;5.57;;;;;;;0.92;86.34;96670.69;4919903;29;20056;-74
2020/12/25 09:03:22;;;;;;;8.90;5.80;;;;;;;1.00;86.08;96670.75;4919934;29;20048;-75
2020/12/25 09:05:49;;;;;;;11.27;7.22;;;;;;;1.08;85.77;96672.56;4919731;29;20051;-74
2020/12/25 09:08:16;;;;;;;13.23;7.32;;;;;;;1.12;85.79;96673.91;4919835;29;20055;-74
2020/12/25 09:10:42;;;;;;;10.95;6.78;;;;;;;1.13;85.55;96676.31;4902405;29;20071;-74
2020/12/25 09:13:09;;;;;;;13.70;8.50;;;;;;;1.14;85.32;96670.19;4919533;29;20056;-74
2020/12/25 09:15:35;;;;;;;12.57;7.40;;;;;;;1.15;85.64;96676.16;4913892;29;20056;-73
2020/12/25 09:18:02;;;;;;;12.77;7.85;;;;;;;1.20;85.99;96677.31;4919517;29;20051;-73
2020/12/25 09:20:28;;;;;;;11.90;7.20;;;;;;;1.26;85.57;96681.09;4902426;29;20512;-73
2020/12/25 09:22:54;;;;;;;9.60;6.63;;;;;;;1.32;85.98;96690.78;4919462;29;20417;-74
2020/12/25 09:25:20;;;;;;;13.80;8.45;;;;;;;1.36;85.52;96699.03;4919449;29;20040;-73
2020/12/25 09:27:46;;;;;;;15.10;8.88;;;;;;;1.35;85.35;96702.59;4919358;29;20040;-76
2020/12/25 09:30:13;;;;;;;12.65;7.75;;;;;;;1.35;85.39;96705.19;4902142;29;20054;-74
2020/12/25 09:32:39;;;;;;;11.07;7.63;;;;;;;1.36;85.58;96710.19;4919338;29;20059;-73
2020/12/25 09:35:05;;;;;;;11.10;7.78;;;;;;;1.39;85.70;96712.47;4919205;29;20067;-73
2020/12/25 09:37:31;;;;;;;13.20;9.27;;;;;;;1.45;85.80;96710.22;4918999;29;20044;-73
2020/12/25 09:39:57;;;;;;;15.60;9.50;;;;;;;1.46;85.57;96709.28;4918426;29;20056;-73
2020/12/25 09:42:23;;;;;;;17.95;10.60;;;;;;;1.46;85.58;96715.25;4916356;29;20409;-73
2020/12/25 09:44:49;;;;;;;18.50;10.80;;;;;;;1.42;85.54;96712.16;4918724;29;20056;-74
2020/12/25 09:47:18;;;;;;;19.20;12.20;;;;;;;1.39;85.54;96722.00;4919089;29;20075;-74
2020/12/25 09:49:45;;;;;;;21.23;12.60;;;;;;;1.37;85.34;96723.94;4902197;29;20048;-74
2020/12/25 09:52:11;;;;;;;20.77;12.10;;;;;;;1.30;85.55;96730.66;4918861;29;20044;-77
2020/12/25 09:54:37;;;;;;;20.65;12.10;;;;;;;1.26;85.84;96732.75;4902325;29;20051;-74
2020/12/25 09:57:04;;;;;;;23.20;12.15;;;;;;;1.26;85.60;96735.34;4918510;29;20048;-74
2020/12/25 09:59:30;;;;;;;21.95;12.45;;;;;;;1.27;85.93;96734.34;4918876;29;20043;-78
2020/12/25 10:01:56;;;;;;;23.27;12.55;;;;;;;1.28;85.94;96733.41;4918993;29;20032;-74
2020/12/25 10:04:22;;;;;;;21.38;12.40;;;;;;;1.32;86.16;96747.63;4918733;29;20048;-76
2020/12/25 10:06:48;;;;;;;21.15;12.55;;;;;;;1.33;86.21;96741.50;4901777;29;20056;-74
2020/12/25 10:09:15;;;;;;;22.67;13.43;;;;;;;1.34;86.25;96734.56;4917049;29;20076;-73
2020/12/25 10:11:41;;;;;;;23.00;12.43;;;;;;;1.37;86.22;96731.69;4918473;29;20059;-76
2020/12/25 10:14:07;;;;;;;23.70;12.52;;;;;;;1.39;86.36;96729.75;4918611;29;20397;-74
2020/12/25 10:16:34;;;;;;;20.35;11.52;;;;;;;1.37;85.89;96727.31;4918634;29;20099;-74
2020/12/25 10:19:00;;;;;;;20.60;12.20;;;;;;;1.38;86.23;96718.59;4918693;29;20412;-74
2020/12/25 10:21:26;;;;;;;19.92;12.90;;;;;;;1.35;86.14;96726.66;4918383;29;20048;-74
2020/12/25 10:23:52;;;;;;;21.75;12.77;;;;;;;1.32;85.92;96719.19;4918457;29;20413;-75
2020/12/25 10:26:19;;;;;;;22.33;12.75;;;;;;;1.31;85.89;96715.00;4901269;29;20075;-75
2020/12/25 10:28:45;;;;;;;19.25;12.32;;;;;;;1.29;85.89;96722.09;4918165;29;20048;-74
2020/12/25 10:31:11;;;;;;;21.33;12.20;;;;;;;1.24;85.84;96718.34;4918473;29;20519;-74
2020/12/25 10:33:38;;;;;;;23.10;12.63;;;;;;;1.20;86.26;96729.00;4917399;29;20041;-74
2020/12/25 10:36:04;;;;;;;24.70;12.90;;;;;;;1.18;86.75;96722.38;4918477;29;20436;-75
2020/12/25 10:38:31;;;;;;;18.80;11.60;;;;;;;1.17;86.33;96728.47;4917861;29;20416;-75
2020/12/25 10:40:58;;;;;;;23.80;12.52;;;;;;;1.15;86.33;96725.22;4918240;29;20048;-75
2020/12/25 10:43:24;;;;;;;21.85;11.95;;;;;;;1.18;86.54;96730.13;4918298;29;20063;-74
2020/12/25 10:45:50;;;;;;;20.30;12.38;;;;;;;1.23;86.62;96724.50;4918050;29;20056;-77
2020/12/25 10:48:16;;;;;;;21.17;11.18;;;;;;;1.30;86.80;96715.16;4901347;29;20064;-76
2020/12/25 10:50:44;;;;;;;20.70;11.15;;;;;;;1.39;86.88;96714.25;4900631;29;20052;-77
2020/12/25 10:53:10;;;;;;;22.10;11.02;;;;;;;1.48;86.64;96722.84;4900032;29;20044;-76
2020/12/25 10:55:37;;;;;;;22.20;10.90;;;;;;;1.55;86.29;96727.22;4917468;29;20424;-74
2020/12/25 10:58:04;;;;;;;19.35;10.02;;;;;;;1.59;86.03;96733.72;4916378;29;20048;-74
2020/12/25 11:00:31;;;;;;;15.40;9.55;;;;;;;1.59;85.87;96736.31;4915942;29;20496;-74
2020/12/25 11:02:57;;;;;;;20.70;10.60;;;;;;;1.55;85.55;96726.44;4917643;29;20408;-74
2020/12/25 11:05:23;;;;;;;16.65;10.35;;;;;;;1.56;85.76;96735.81;4917806;29;20047;-74
2020/12/25 11:07:49;;;;;;;15.20;9.45;;;;;;;1.52;85.48;96731.94;4900740;29;20055;-74
2020/12/25 11:10:15;;;;;;;18.55;10.15;;;;;;;1.50;85.52;96733.84;4918113;29;20048;-74
2020/12/25 11:12:41;;;;;;;15.50;9.70;;;;;;;1.50;85.74;96728.69;4917447;29;20056;-74
2020/12/25 11:15:08;;;;;;;20.70;10.73;;;;;;;1.52;85.76;96731.94;4900740;29;20052;-75
2020/12/25 11:17:34;;;;;;;18.00;9.77;;;;;;;1.53;85.97;96734.34;4916998;29;20043;-74
2020/12/25 11:20:00;;;;;;;16.55;9.80;;;;;;;1.53;85.65;96736.13;4900646;29;20071;-74
2020/12/25 11:22:26;;;;;;;17.48;10.20;;;;;;;1.57;85.54;96735.66;4900833;29;20047;-74
2020/12/25 11:24:52;;;;;;;13.25;9.13;;;;;;;1.59;85.66;96733.72;4916777;29;20055;-74
2020/12/25 11:27:19;;;;;;;18.17;9.57;;;;;;;1.59;85.54;96732.91;4916942;29;20040;-74
2020/12/25 11:29:45;;;;;;;13.52;9.32;;;;;;;1.55;85.52;96735.00;4917223;29;20040;-75
2020/12/25 11:32:11;;;;;;;16.92;10.07;;;;;;;1.54;85.70;96735.97;4916116;29;20036;-75
2020/12/25 11:34:38;;;;;;;19.92;9.48;;;;;;;1.52;85.63;96739.69;4916022;29;20048;-75
2020/12/25 11:37:04;;;;;;;14.25;8.80;;;;;;;1.49;85.33;96743.38;4899864;29;20044;-75
2020/12/25 11:39:30;;;;;;;16.10;9.18;;;;;;;1.42;85.06;96737.19;4916998;29;20477;-76
2020/12/25 11:41:56;;;;;;;13.95;8.90;;;;;;;1.41;85.48;96738.97;4916796;29;20060;-76